Time;durP1;ratioP1;P1;durP2;ratioP2;P2;SDS_P1;SDS_P2;PMS_P1;PMS_P2;Temp;Humidity;BMP_temperature;BMP_pressure;BME280_temperature;BME280_humidity;BME280_pressure;Samples;Min_cycle;Max_cycle;Signal;HPM_P1;HPM_P2
2023/02/24 00:01:07;;;;;;;;;37.00;27.25;;;;;11.81;100.00;101179.22;5017285;28;45523;-74
2023/02/24 00:03:35;;;;;;;;;31.75;26.75;;;;;11.81;100.00;101176.56;5017725;28;45750;-73
2023/02/24 00:06:04;;;;;;;;;41.00;27.50;;;;;11.73;100.00;101163.28;5018247;28;45479;-72
2023/02/24 00:08:29;;;;;;;;;40.00;26.75;;;;;11.74;100.00;101166.81;5032714;28;46108;-74
2023/02/24 00:10:56;;;;;;;;;39.75;25.75;;;;;11.74;100.00;101167.69;5033476;28;45566;-74
2023/02/24 00:13:21;;;;;;;;;38.75;29.00;;;;;11.73;100.00;101162.38;5034105;28;45167;-75
2023/02/24 00:16:03;;;;;;;;;43.00;31.50;;;;;11.74;100.00;101165.03;5034983;28;45328;-74
2023/02/24 00:18:31;;;;;;;;;42.50;31.25;;;;;11.77;100.00;101164.16;5016273;28;46664;-73
2023/02/24 00:21:18;;;;;;;;;46.25;33.50;;;;;11.77;100.00;101158.88;5008578;28;45612;-73
2023/02/24 00:23:45;;;;;;;;;33.75;27.25;;;;;11.76;100.00;101154.47;5009834;28;45347;-73
2023/02/24 00:26:13;;;;;;;;;44.50;31.25;;;;;11.76;100.00;101158.00;5024169;28;45931;-76
2023/02/24 00:28:39;;;;;;;;;39.25;32.00;;;;;11.75;100.00;101160.63;5032751;28;45513;-75
2023/02/24 00:31:06;;;;;;;;;39.25;29.75;;;;;11.73;100.00;101160.63;5035080;28;45330;-75
2023/02/24 00:33:33;;;;;;;;;32.50;26.00;;;;;11.72;100.00;101160.63;5028492;28;45592;-74
2023/02/24 00:36:15;;;;;;;;;45.75;30.75;;;;;11.73;100.00;101154.44;5031636;28;45376;-74
2023/02/24 00:38:45;;;;;;;;;37.25;28.00;;;;;11.73;100.00;101154.44;5018561;28;46803;-73
2023/02/24 00:41:14;;;;;;;;;39.00;25.25;;;;;11.77;100.00;101151.88;5016895;28;45482;-73
2023/02/24 00:43:45;;;;;;;;;44.50;34.25;;;;;11.78;100.00;101147.47;5025273;28;45299;-73
2023/02/24 00:46:13;;;;;;;;;49.50;34.00;;;;;11.82;100.00;101153.69;5017778;28;45326;-74
2023/02/24 00:48:44;;;;;;;;;46.75;31.00;;;;;11.82;100.00;101149.28;5034388;28;45452;-73
2023/02/24 00:51:11;;;;;;;;;39.00;33.00;;;;;11.83;100.00;101148.44;5037216;28;45511;-74
2023/02/24 00:53:37;;;;;;;;;47.75;36.75;;;;;11.87;100.00;101149.31;5020034;28;45370;-72
2023/02/24 00:56:10;;;;;;;;;47.25;34.50;;;;;11.86;100.00;101142.28;5020121;28;45461;-74
2023/02/24 00:58:39;;;;;;;;;45.25;31.50;;;;;11.85;100.00;101130.81;5020123;28;45992;-74
2023/02/24 01:01:16;;;;;;;;;46.75;33.50;;;;;11.88;100.00;101133.50;5037816;28;45588;-74
2023/02/24 01:03:50;;;;;;;;;49.00;35.25;;;;;11.89;100.00;101132.63;5038018;28;45213;-73
2023/02/24 01:06:19;;;;;;;;;42.25;28.25;;;;;11.87;100.00;101122.88;5037261;28;45572;-75
2023/02/24 01:08:48;;;;;;;;;46.75;33.50;;;;;11.89;100.00;101129.09;5015979;28;46181;-74
2023/02/24 01:14:00;;;;;;;;;38.00;34.00;;;;;11.87;100.00;101134.34;5034045;28;45560;-75
2023/02/24 01:16:25;;;;;;;;;41.25;28.75;;;;;11.88;100.00;101133.50;5019442;28;45186;-74
2023/02/24 01:18:50;;;;;;;;;40.00;30.00;;;;;11.89;100.00;101124.69;5018127;28;46889;-74
2023/02/24 01:21:18;;;;;;;;;40.25;26.00;;;;;11.88;100.00;101122.00;5036000;28;45311;-74
2023/02/24 01:23:49;;;;;;;;;45.00;29.75;;;;;11.90;100.00;101120.28;5037749;28;45394;-74
2023/02/24 01:26:15;;;;;;;;;45.00;35.00;;;;;11.84;100.00;101110.50;5018684;28;45362;-74
2023/02/24 01:28:41;;;;;;;;;51.50;36.25;;;;;11.90;100.00;101121.16;5013177;28;46067;-74
2023/02/24 01:31:07;;;;;;;;;36.50;30.25;;;;;11.90;100.00;101110.56;5037128;28;45426;-75
2023/02/24 01:33:36;;;;;;;;;45.50;31.25;;;;;11.90;100.00;101109.69;5036469;28;48514;-73
2023/02/24 01:36:09;;;;;;;;;40.25;33.50;;;;;11.89;100.00;101106.16;5020082;28;45560;-74
2023/02/24 01:38:35;;;;;;;;;43.50;30.25;;;;;11.90;100.00;101107.94;5018027;28;46732;-74
2023/02/24 01:41:03;;;;;;;;;39.75;29.50;;;;;11.87;100.00;101099.94;5036664;28;45394;-74
2023/02/24 01:43:32;;;;;;;;;29.50;26.25;;;;;11.90;100.00;101104.41;5019694;28;45520;-75
2023/02/24 01:45:58;;;;;;;;;35.75;28.75;;;;;11.89;100.00;101103.50;5037219;28;45631;-74
2023/02/24 01:48:24;;;;;;;;;48.50;34.00;;;;;11.86;100.00;101087.59;5018930;28;46518;-73
2023/02/24 01:50:50;;;;;;;;;47.25;32.75;;;;;11.87;100.00;101099.94;5018416;28;58210;-73
2023/02/24 01:53:16;;;;;;;;;45.00;33.00;;;;;11.90;100.00;101100.00;5015796;28;45552;-73
2023/02/24 01:55:48;;;;;;;;;51.75;34.00;;;;;11.90;100.00;101099.09;5002783;28;45621;-75
2023/02/24 01:58:32;;;;;;;;;39.25;27.50;;;;;11.86;100.00;101087.59;5018874;28;45626;-74
2023/02/24 02:00:58;;;;;;;;;46.25;33.50;;;;;11.82;100.00;101080.50;5017049;28;53685;-74
2023/02/24 02:03:26;;;;;;;;;35.75;28.50;;;;;11.82;100.00;101079.59;5018779;28;45422;-74
2023/02/24 02:05:55;;;;;;;;;38.50;28.75;;;;;11.77;100.00;101077.78;5001644;28;45596;-72
2023/02/24 02:08:22;;;;;;;;;46.00;30.50;;;;;11.75;100.00;101070.69;5017981;28;45819;-74
2023/02/24 02:10:48;;;;;;;;;51.00;33.25;;;;;11.71;100.00;101075.06;5019117;28;45370;-76
2023/02/24 02:13:21;;;;;;;;;47.00;30.50;;;;;11.69;100.00;101074.16;5017491;28;45508;-74
2023/02/24 02:16:07;;;;;;;;;40.50;32.75;;;;;11.67;100.00;101085.63;5018877;28;45562;-74
2023/02/24 02:18:43;;;;;;;;;39.50;33.50;;;;;11.61;100.00;101070.56;5035312;28;46107;-74
2023/02/24 02:21:24;;;;;;;;;50.00;32.50;;;;;11.58;100.00;101065.22;5035873;28;45461;-74
2023/02/24 02:24:04;;;;;;;;;38.25;29.50;;;;;11.60;100.00;101063.47;5036804;28;45208;-73
2023/02/24 02:26:52;;;;;;;;;48.25;34.50;;;;;11.57;100.00;101067.88;5034785;28;45385;-74
2023/02/24 02:29:30;;;;;;;;;42.75;32.25;;;;;11.57;100.00;101070.50;5017675;28;46699;-74
2023/02/24 02:32:10;;;;;;;;;42.00;35.25;;;;;11.54;100.00;101051.09;5030513;28;45421;-74
2023/02/24 02:35:07;;;;;;;;;37.75;27.00;;;;;11.54;100.00;101051.09;5035902;28;45373;-71
2023/02/24 02:38:04;;;;;;;;;34.50;28.50;;;;;11.54;100.00;101042.25;5035956;28;45161;-76
2023/02/24 02:40:36;;;;;;;;;45.25;33.25;;;;;11.53;100.00;101040.50;5028012;28;46576;-74
2023/02/24 02:43:16;;;;;;;;;39.25;31.50;;;;;11.53;100.00;101041.38;5014902;28;45342;-73
2023/02/24 02:45:49;;;;;;;;;41.75;32.00;;;;;11.51;100.00;101036.97;5018193;28;45561;-76
2023/02/24 02:48:27;;;;;;;;;50.00;30.25;;;;;11.48;100.00;101036.91;5035652;28;46204;-73
2023/02/24 02:50:56;;;;;;;;;32.25;30.50;;;;;11.50;100.00;101043.09;5035481;28;45512;-74
2023/02/24 02:53:33;;;;;;;;;44.50;31.75;;;;;11.51;100.00;101037.84;5014413;28;45467;-75
2023/02/24 02:56:23;;;;;;;;;42.00;27.50;;;;;11.50;100.00;101033.44;5035403;28;45271;-73
2023/02/24 02:58:53;;;;;;;;;39.00;29.75;;;;;11.50;100.00;101035.16;5014904;28;45322;-74
2023/02/24 03:01:21;;;;;;;;;39.75;32.00;;;;;11.48;100.00;101039.56;5001366;28;47555;-75
2023/02/24 03:03:50;;;;;;;;;50.50;32.00;;;;;11.46;100.00;101031.63;5017418;28;45383;-73
2023/02/24 03:06:21;;;;;;;;;44.75;32.75;;;;;11.44;100.00;101022.78;5036230;28;47067;-73
2023/02/24 03:09:14;;;;;;;;;41.75;33.25;;;;;11.45;100.00;101021.94;5016586;28;45510;-73
2023/02/24 03:11:41;;;;;;;;;38.50;32.50;;;;;11.44;100.00;101020.13;5020309;28;45884;-73
2023/02/24 03:14:10;;;;;;;;;36.00;28.50;;;;;11.41;100.00;101022.75;5016666;28;45276;-73
2023/02/24 03:16:38;;;;;;;;;41.50;28.00;;;;;11.42;100.00;101027.16;5018397;28;45474;-75
2023/02/24 03:19:07;;;;;;;;;42.75;30.00;;;;;11.42;100.00;101036.84;5035411;28;45644;-73
2023/02/24 03:21:39;;;;;;;;;33.25;25.75;;;;;11.41;100.00;101046.56;5015557;28;45815;-75
2023/02/24 03:24:05;;;;;;;;;37.00;28.00;;;;;11.40;100.00;101047.44;5018086;28;45424;-75
2023/02/24 03:26:50;;;;;;;;;33.00;27.75;;;;;11.39;100.00;101048.25;5035201;28;45354;-73
2023/02/24 03:29:47;;;;;;;;;43.50;27.50;;;;;11.34;100.00;101034.09;5016570;28;45430;-75
2023/02/24 03:32:20;;;;;;;;;40.00;27.50;;;;;11.32;100.00;101025.28;5013007;28;47030;-73
2023/02/24 03:35:10;;;;;;;;;34.00;27.25;;;;;11.29;100.00;101027.88;5017429;28;45437;-74
2023/02/24 03:37:36;;;;;;;;;39.75;29.00;;;;;11.20;100.00;101031.34;5035194;28;45461;-74
2023/02/24 03:40:15;;;;;;;;;45.75;31.25;;;;;11.19;100.00;101029.56;5035772;28;45578;-73
2023/02/24 03:42:49;;;;;;;;;49.00;34.50;;;;;11.15;100.00;101026.88;5034768;28;45547;-73
2023/02/24 03:45:16;;;;;;;;;31.25;25.00;;;;;11.14;100.00;101028.63;5035297;28;45390;-73
2023/02/24 03:47:45;;;;;;;;;38.00;29.75;;;;;11.13;100.00;101025.94;5018619;28;45374;-73
2023/02/24 03:50:15;;;;;;;;;37.25;30.00;;;;;11.10;100.00;101023.28;5022229;28;45598;-75
2023/02/24 03:53:00;;;;;;;;;45.00;31.75;;;;;11.11;100.00;101025.94;5034776;28;46915;-74
2023/02/24 03:55:48;;;;;;;;;36.00;30.75;;;;;11.08;100.00;101014.41;5033757;28;45504;-75
2023/02/24 03:58:23;;;;;;;;;44.75;33.25;;;;;11.08;100.00;101009.13;5035456;28;45521;-74
2023/02/24 04:00:57;;;;;;;;;30.75;30.00;;;;;11.07;100.00;101007.38;5016438;28;45366;-72
2023/02/24 04:03:53;;;;;;;;;41.50;31.75;;;;;11.06;100.00;101003.84;5016955;28;46653;-73
2023/02/24 04:06:30;;;;;;;;;38.25;28.50;;;;;11.05;100.00;101002.06;5033490;28;45508;-73
2023/02/24 04:09:05;;;;;;;;;32.25;26.75;;;;;11.04;100.00;100999.44;5038090;28;45377;-72
2023/02/24 04:11:47;;;;;;;;;46.50;32.00;;;;;11.03;100.00;100993.25;5034638;28;45466;-73
2023/02/24 04:14:23;;;;;;;;;44.50;34.25;;;;;11.02;100.00;100987.09;5014267;28;46995;-73
2023/02/24 04:17:08;;;;;;;;;45.25;32.75;;;;;10.96;100.00;100971.13;5032197;28;45445;-73
2023/02/24 04:19:37;;;;;;;;;41.25;28.00;;;;;11.03;100.00;100980.06;5016336;28;45441;-73
2023/02/24 04:22:04;;;;;;;;;37.75;27.25;;;;;11.00;100.00;100980.88;5016503;28;45621;-74
2023/02/24 04:24:31;;;;;;;;;38.25;29.00;;;;;11.01;100.00;100972.06;5017635;28;47984;-75
2023/02/24 04:27:00;;;;;;;;;43.75;30.75;;;;;10.99;100.00;100968.53;5019879;28;45466;-74
2023/02/24 04:29:34;;;;;;;;;37.00;31.00;;;;;10.95;100.00;100966.72;5031802;28;45350;-73
2023/02/24 04:32:02;;;;;;;;;35.75;30.00;;;;;10.95;100.00;100972.00;5020421;28;45648;-75
2023/02/24 04:34:31;;;;;;;;;35.25;28.50;;;;;10.93;100.00;100968.47;5020233;28;45658;-73
2023/02/24 04:36:58;;;;;;;;;39.50;27.25;;;;;10.90;100.00;100955.22;5037704;28;45375;-73
2023/02/24 04:39:24;;;;;;;;;40.25;31.00;;;;;10.90;100.00;100957.88;5020550;28;45529;-73
2023/02/24 04:41:50;;;;;;;;;40.50;25.50;;;;;10.89;100.00;100952.56;5034490;28;45327;-73
2023/02/24 04:44:16;;;;;;;;;30.25;26.00;;;;;10.86;100.00;100956.03;5019800;28;46121;-73
2023/02/24 04:46:43;;;;;;;;;40.75;30.50;;;;;10.85;100.00;100956.91;5037724;28;45447;-75
2023/02/24 04:49:09;;;;;;;;;35.00;26.75;;;;;10.82;100.00;100953.38;5020397;28;45419;-73
2023/02/24 04:51:35;;;;;;;;;37.75;25.00;;;;;10.77;100.00;100950.69;5037708;28;45389;-74
2023/02/24 04:54:02;;;;;;;;;41.50;28.75;;;;;10.77;100.00;100945.41;5018242;28;46926;-75
2023/02/24 04:56:28;;;;;;;;;37.00;32.00;;;;;10.74;100.00;100951.50;5019440;28;45484;-74
2023/02/24 04:58:54;;;;;;;;;44.75;28.25;;;;;10.74;100.00;100950.63;5020028;28;45387;-74
2023/02/24 05:01:20;;;;;;;;;32.00;26.75;;;;;10.78;100.00;100954.19;5020007;28;45636;-73
2023/02/24 05:03:46;;;;;;;;;37.25;29.00;;;;;10.83;100.00;100958.66;5035280;28;62389;-72
2023/02/24 05:06:16;;;;;;;;;41.75;28.50;;;;;10.84;100.00;100960.44;5037861;28;45312;-73
2023/02/24 05:08:42;;;;;;;;;40.25;30.50;;;;;10.85;100.00;100949.00;5018470;28;45661;-72
2023/02/24 05:11:17;;;;;;;;;40.50;27.25;;;;;10.87;100.00;100949.91;5029216;28;45386;-74
2023/02/24 05:13:44;;;;;;;;;43.25;35.50;;;;;10.87;100.00;100949.91;5002666;28;47644;-73
2023/02/24 05:16:11;;;;;;;;;38.50;27.50;;;;;10.89;100.00;100949.94;5019263;28;45454;-73
2023/02/24 05:18:37;;;;;;;;;42.75;34.75;;;;;10.92;100.00;100955.22;5020016;28;45283;-73
2023/02/24 05:21:34;;;;;;;;;36.75;29.25;;;;;10.91;100.00;100954.34;5036302;28;45363;-74
2023/02/24 05:24:10;;;;;;;;;43.00;32.75;;;;;10.94;100.00;100938.53;5022653;28;45883;-73
2023/02/24 05:26:37;;;;;;;;;36.50;28.00;;;;;10.96;100.00;100949.13;5021818;28;45507;-75
2023/02/24 05:29:04;;;;;;;;;45.50;34.25;;;;;10.97;100.00;100942.97;5019197;28;45443;-75
2023/02/24 05:31:30;;;;;;;;;42.00;35.00;;;;;10.97;100.00;100941.22;5035401;28;45655;-73
2023/02/24 05:33:58;;;;;;;;;36.00;31.00;;;;;10.98;100.00;100931.56;5040868;28;63931;-73
2023/02/24 05:36:25;;;;;;;;;34.00;26.75;;;;;11.02;100.00;100941.25;5034433;28;45407;-75
2023/02/24 05:38:57;;;;;;;;;43.75;34.50;;;;;11.01;100.00;100943.00;5015019;28;45402;-72
2023/02/24 05:41:31;;;;;;;;;46.50;28.25;;;;;11.02;100.00;100939.53;5020272;28;45496;-75
2023/02/24 05:43:57;;;;;;;;;35.75;28.00;;;;;11.04;100.00;100936.91;5033119;28;46600;-73
2023/02/24 05:46:28;;;;;;;;;31.75;27.75;;;;;11.05;100.00;100940.41;5018823;28;45239;-74
2023/02/24 05:49:01;;;;;;;;;30.50;22.75;;;;;11.06;100.00;100931.63;5018502;28;45511;-74
2023/02/24 05:51:34;;;;;;;;;41.25;30.50;;;;;11.07;100.00;100936.03;5019407;28;45295;-75
2023/02/24 05:54:03;;;;;;;;;33.75;25.00;;;;;11.09;100.00;100927.25;5021667;28;47507;-73
2023/02/24 05:56:32;;;;;;;;;34.50;30.75;;;;;11.10;100.00;100925.50;5024438;28;45347;-73
2023/02/24 05:59:11;;;;;;;;;36.75;32.75;;;;;11.07;100.00;100928.97;5019112;28;45485;-73
2023/02/24 06:01:44;;;;;;;;;26.25;26.25;;;;;11.06;100.00;100921.94;5018993;28;45307;-73
2023/02/24 06:04:09;;;;;;;;;34.00;23.75;;;;;11.06;100.00;100918.41;5035550;28;46643;-74
2023/02/24 06:06:38;;;;;;;;;38.75;29.50;;;;;11.02;100.00;100912.19;5019176;28;45370;-73
2023/02/24 06:09:11;;;;;;;;;40.50;29.50;;;;;10.99;100.00;100915.72;5036234;28;45565;-73
2023/02/24 06:11:39;;;;;;;;;36.00;28.25;;;;;10.98;100.00;100924.50;5144331;22;45642;-73
2023/02/24 06:14:08;;;;;;;;;32.00;28.00;;;;;10.95;100.00;100918.28;5016624;28;46630;-74
2023/02/24 06:16:35;;;;;;;;;35.00;25.50;;;;;10.90;100.00;100902.38;5022378;28;45528;-74
2023/02/24 06:19:01;;;;;;;;;34.00;26.50;;;;;10.93;100.00;100912.13;5035139;28;45568;-73
2023/02/24 06:21:28;;;;;;;;;37.75;30.50;;;;;10.88;100.00;100905.91;5000484;28;45647;-74
2023/02/24 06:23:56;;;;;;;;;41.50;31.75;;;;;10.89;100.00;100908.53;5031552;28;46565;-74
2023/02/24 06:26:22;;;;;;;;;30.75;22.25;;;;;10.86;100.00;100902.34;5030096;28;45570;-74
2023/02/24 06:28:48;;;;;;;;;37.25;28.25;;;;;10.86;100.00;100907.63;5012938;28;45518;-75
2023/02/24 06:31:14;;;;;;;;;38.00;31.50;;;;;10.86;100.00;100902.34;5018330;28;45537;-74
2023/02/24 06:33:40;;;;;;;;;32.00;22.75;;;;;10.84;100.00;100899.69;5015868;28;46609;-74
2023/02/24 06:36:07;;;;;;;;;36.00;27.75;;;;;10.81;100.00;100904.91;5035525;28;60641;-74
2023/02/24 06:38:36;;;;;;;;;31.50;24.00;;;;;10.82;100.00;100914.66;5016505;28;45532;-76
2023/02/24 06:41:09;;;;;;;;;39.00;28.75;;;;;10.81;100.00;100904.91;5016880;28;45489;-74
2023/02/24 06:43:42;;;;;;;;;31.75;26.00;;;;;10.80;100.00;100904.91;5017437;28;46160;-74
2023/02/24 06:46:09;;;;;;;;;41.00;28.75;;;;;10.78;100.00;100904.91;5034888;28;45483;-74
2023/02/24 06:48:36;;;;;;;;;37.25;28.00;;;;;10.80;100.00;100907.56;5017568;28;45547;-75
2023/02/24 06:51:14;;;;;;;;;44.25;29.00;;;;;10.80;100.00;100916.34;5018494;28;45323;-74
2023/02/24 06:53:42;;;;;;;;;38.50;25.50;;;;;10.80;100.00;100931.31;5035131;28;46163;-74
2023/02/24 06:56:18;;;;;;;;;37.50;26.75;;;;;10.75;100.00;100929.50;5036306;28;45381;-74
2023/02/24 06:58:49;;;;;;;;;33.00;25.25;;;;;10.76;100.00;100941.00;5025918;28;45585;-75
2023/02/24 07:01:20;;;;;;;;;35.25;27.25;;;;;10.75;100.00;100931.25;5020704;28;45609;-73
2023/02/24 07:04:02;;;;;;;;;37.75;29.50;;;;;10.76;100.00;100930.44;5016562;28;45646;-74
2023/02/24 07:06:33;;;;;;;;;31.25;24.25;;;;;10.77;100.00;100933.94;5000135;28;46274;-76
2023/02/24 07:09:07;;;;;;;;;30.75;24.00;;;;;10.72;100.00;100931.25;5015267;28;45372;-77
2023/02/24 07:11:34;;;;;;;;;33.25;24.00;;;;;10.72;100.00;100932.13;5017311;28;45489;-77
2023/02/24 07:14:00;;;;;;;;;37.75;29.00;;;;;10.73;100.00;100927.72;5007077;28;45673;-75
2023/02/24 07:16:27;;;;;;;;;40.25;31.00;;;;;10.72;100.00;100937.41;5015378;28;45598;-73
2023/02/24 07:18:58;;;;;;;;;33.75;26.75;;;;;10.73;100.00;100941.81;5035359;28;45421;-75
2023/02/24 07:21:25;;;;;;;;;33.50;24.50;;;;;10.71;100.00;100937.41;5016606;28;45627;-74
2023/02/24 07:23:55;;;;;;;;;29.75;22.00;;;;;10.72;100.00;100932.13;5026658;28;46861;-74
2023/02/24 07:26:22;;;;;;;;;32.75;22.50;;;;;10.75;100.00;100931.25;5004240;28;45532;-73
2023/02/24 07:28:48;;;;;;;;;33.25;25.50;;;;;10.77;100.00;100934.84;5016494;28;45486;-74
2023/02/24 07:31:16;;;;;;;;;32.25;24.50;;;;;10.78;100.00;100947.16;5012057;28;45311;-74
2023/02/24 07:33:44;;;;;;;;;26.50;22.50;;;;;10.80;100.00;100944.53;5036719;28;46216;-75
2023/02/24 07:36:13;;;;;;;;;33.00;21.50;;;;;10.79;100.00;100937.47;5015098;28;46344;-74
2023/02/24 07:38:43;;;;;;;;;26.25;23.75;;;;;10.81;100.00;100935.72;5016734;28;45455;-75
2023/02/24 07:41:11;;;;;;;;;32.75;25.25;;;;;10.81;100.00;100943.66;5021932;28;45524;-74
2023/02/24 07:43:38;;;;;;;;;32.75;22.75;;;;;10.79;100.00;100940.13;5040137;28;46845;-74
2023/02/24 07:46:11;;;;;;;;;25.00;24.25;;;;;10.81;100.00;100944.53;5033196;28;45469;-74
2023/02/24 07:48:38;;;;;;;;;29.25;20.25;;;;;10.80;100.00;100939.25;5027850;28;45459;-75
2023/02/24 07:51:07;;;;;;;;;43.50;25.25;;;;;10.84;100.00;100941.94;5033376;28;45644;-74
2023/02/24 07:53:34;;;;;;;;;36.75;26.00;;;;;10.85;100.00;100940.19;5033068;28;45458;-75
2023/02/24 07:55:59;;;;;;;;;29.75;25.50;;;;;10.87;100.00;100936.72;5011165;28;46010;-73
2023/02/24 07:58:27;;;;;;;;;33.00;19.75;;;;;10.89;100.00;100934.09;5033448;28;45604;-75
2023/02/24 08:00:58;;;;;;;;;31.00;22.25;;;;;10.92;100.00;100948.22;5037848;28;45623;-74
2023/02/24 08:03:26;;;;;;;;;24.00;20.50;;;;;10.94;100.00;100935.91;5023221;28;45759;-75
2023/02/24 08:05:57;;;;;;;;;34.50;25.75;;;;;10.98;100.00;100936.84;5016442;28;45604;-75
2023/02/24 08:08:24;;;;;;;;;23.75;21.00;;;;;10.99;100.00;100934.19;5020036;28;45494;-74
2023/02/24 08:10:52;;;;;;;;;35.25;24.75;;;;;11.02;100.00;100938.63;5036525;28;45402;-74
2023/02/24 08:13:17;;;;;;;;;24.00;19.50;;;;;11.05;100.00;100936.03;5046666;28;48031;-73
2023/02/24 08:15:44;;;;;;;;;27.50;21.25;;;;;11.07;100.00;100926.34;5036386;28;45793;-75
2023/02/24 08:18:11;;;;;;;;;24.75;21.25;;;;;11.12;100.00;100937.84;5013452;28;45455;-73
2023/02/24 08:20:50;;;;;;;;;28.50;19.25;;;;;11.16;100.00;100930.84;5010254;28;45628;-74
2023/02/24 08:23:17;;;;;;;;;31.50;22.50;;;;;11.18;100.00;100935.25;5031936;28;45748;-74
2023/02/24 08:25:43;;;;;;;;;30.25;15.75;;;;;11.23;100.00;100925.63;5043113;28;45530;-74
2023/02/24 08:28:10;;;;;;;;;30.00;21.50;;;;;11.22;100.00;100923.84;5035595;28;45640;-74
2023/02/24 08:30:38;;;;;;;;;29.00;17.25;;;;;11.24;100.00;100921.25;5019295;28;45554;-74
2023/02/24 08:33:06;;;;;;;;;34.25;21.25;;;;;11.26;100.00;100906.28;5039497;28;47010;-73
2023/02/24 08:35:34;;;;;;;;;34.75;22.00;;;;;11.24;100.00;100905.41;5018222;28;45493;-75
2023/02/24 08:38:38;;;;;;;;;24.75;21.00;;;;;11.23;100.00;100899.19;5026342;28;45339;-74
2023/02/24 08:41:05;;;;;;;;;27.50;22.00;;;;;11.23;100.00;100893.91;5020604;28;45496;-75
2023/02/24 08:43:39;;;;;;;;;25.00;16.50;;;;;11.26;100.00;100904.53;5003931;28;46235;-74
2023/02/24 08:46:20;;;;;;;;;31.00;21.50;;;;;11.26;100.00;100901.88;5001446;28;45342;-73
2023/02/24 08:48:54;;;;;;;;;32.25;18.50;;;;;11.27;100.00;100886.91;5018012;28;46121;-74
2023/02/24 08:51:27;;;;;;;;;28.50;19.25;;;;;11.29;100.00;100879.84;5032864;28;45335;-74
2023/02/24 08:53:55;;;;;;;;;22.00;15.50;;;;;11.29;100.00;100887.78;5035496;28;46469;-74
2023/02/24 08:56:24;;;;;;;;;29.25;18.25;;;;;11.28;100.00;100880.72;5014798;28;45268;-75
2023/02/24 08:59:05;;;;;;;;;33.25;24.75;;;;;11.33;100.00;100889.59;5015070;28;45432;-75
2023/02/24 09:01:36;;;;;;;;;32.50;25.75;;;;;11.36;100.00;100884.34;5015020;28;45624;-74
2023/02/24 09:04:10;;;;;;;;;21.25;18.00;;;;;11.43;100.00;100887.91;5032066;28;46160;-75
2023/02/24 09:06:42;;;;;;;;;25.50;22.25;;;;;11.47;100.00;100895.00;5022005;28;45532;-74
2023/02/24 09:09:19;;;;;;;;;30.75;25.75;;;;;11.49;100.00;100885.31;5034785;28;45562;-74
2023/02/24 09:11:58;;;;;;;;;29.50;24.25;;;;;11.52;100.00;100890.66;5012892;28;45537;-75
2023/02/24 09:14:27;;;;;;;;;43.50;28.25;;;;;11.58;100.00;100895.09;5023536;28;45643;-75
2023/02/24 09:17:09;;;;;;;;;38.75;27.75;;;;;11.59;100.00;100892.47;5017904;28;45524;-74
2023/02/24 09:25:39;;;;;;;;;23.50;18.50;;;;;11.81;100.00;100904.06;5018751;28;45831;-74
2023/02/24 09:28:06;;;;;;;;;30.50;22.00;;;;;11.88;100.00;100905.03;5020208;28;45334;-75
2023/02/24 09:30:36;;;;;;;;;30.00;23.25;;;;;11.90;100.00;100896.25;5016211;28;45433;-74
2023/02/24 09:33:16;;;;;;;;;36.75;21.75;;;;;11.96;100.00;100898.94;5018762;28;45466;-73
2023/02/24 09:35:52;;;;;;;;;25.50;21.50;;;;;12.02;100.00;100912.19;5012443;28;46124;-74
2023/02/24 09:38:35;;;;;;;;;28.00;20.25;;;;;12.08;100.00;100906.06;5032687;28;45448;-74
2023/02/24 09:41:05;;;;;;;;;30.75;21.00;;;;;12.12;100.00;100893.72;5014312;28;45548;-74
2023/02/24 09:43:43;;;;;;;;;25.75;20.25;;;;;12.06;100.00;100894.59;5021320;28;45582;-74
2023/02/24 09:46:15;;;;;;;;;22.67;16.67;;;;;11.97;100.00;100903.34;5018719;28;45773;-73
2023/02/24 09:48:44;;;;;;;;;25.25;20.25;;;;;11.87;100.00;100901.50;5020633;28;45421;-74
2023/02/24 09:51:41;;;;;;;;;23.50;19.75;;;;;11.78;100.00;100914.66;5019017;28;45516;-73
2023/02/24 09:54:02;;;;;;;;;28.33;21.67;;;;;11.65;100.00;100895.13;5019447;28;45549;-74
2023/02/24 09:56:41;;;;;;;;;35.50;24.75;;;;;11.58;100.00;100888.03;5024372;28;46286;-76
2023/02/24 09:59:33;;;;;;;;;23.25;19.00;;;;;11.57;100.00;100893.34;5005759;28;46015;-76
2023/02/24 10:02:17;;;;;;;;;29.75;23.75;;;;;11.62;100.00;100892.50;5021810;28;45469;-75
2023/02/24 10:04:53;;;;;;;;;26.75;20.00;;;;;11.69;100.00;100888.13;5020223;28;45428;-75
2023/02/24 10:07:35;;;;;;;;;27.00;22.00;;;;;11.75;100.00;100881.13;5030630;28;45444;-76
2023/02/24 10:10:19;;;;;;;;;22.00;18.00;;;;;11.79;100.00;100872.34;5038328;28;45635;-75
2023/02/24 10:13:12;;;;;;;;;26.00;21.00;;;;;11.78;100.00;100881.16;5004357;28;45530;-75
2023/02/24 10:15:57;;;;;;;;;23.67;21.00;;;;;11.70;100.00;100871.38;5036421;28;45472;-74
2023/02/24 10:18:34;;;;;;;;;23.33;16.67;;;;;11.61;100.00;100871.31;5014891;28;46545;-75
2023/02/24 10:21:29;;;;;;;;;20.67;15.67;;;;;11.52;100.00;100853.63;5027795;28;45537;-73
2023/02/24 10:24:04;;;;;;;;;22.33;17.67;;;;;11.40;100.00;100841.22;5017497;28;45556;-76
2023/02/24 10:26:44;;;;;;;;;21.00;16.67;;;;;11.36;100.00;100836.75;5018826;28;45464;-75
2023/02/24 10:29:42;;;;;;;;;17.67;16.00;;;;;11.31;100.00;100838.47;5036133;28;46923;-76
2023/02/24 10:32:22;;;;;;;;;24.00;17.50;;;;;11.29;100.00;100842.84;5018755;28;45475;-75
2023/02/24 10:34:51;;;;;;;;;17.00;15.00;;;;;11.32;100.00;100844.66;5017434;28;45454;-74
2023/02/24 10:37:22;;;;;;;;;27.25;23.00;;;;;11.37;100.00;100840.28;5036547;28;45472;-75
2023/02/24 10:39:49;;;;;;;;;22.50;20.00;;;;;11.45;100.00;100836.84;5017681;28;45783;-74
2023/02/24 10:42:31;;;;;;;;;44.25;35.25;;;;;11.55;100.00;100838.66;5035465;28;45570;-74
2023/02/24 10:45:12;;;;;;;;;19.00;18.25;;;;;11.64;100.00;100832.53;5012430;28;45373;-75
2023/02/24 10:47:43;;;;;;;;;22.00;17.75;;;;;11.73;100.00;100824.69;5035163;28;46105;-74
2023/02/24 10:50:23;;;;;;;;;19.50;15.25;;;;;11.83;100.00;100827.44;5017510;28;46755;-75
2023/02/24 10:58:43;;;;;;;;;21.75;15.75;;;;;12.06;100.00;100824.00;5018815;28;45313;-75
2023/02/24 11:01:19;;;;;;;;;16.00;10.75;;;;;12.05;100.00;100819.59;5033740;28;46819;-74
2023/02/24 11:04:00;;;;;;;;;19.75;15.75;;;;;12.11;100.00;100828.44;5011365;28;45445;-73
2023/02/24 11:06:51;;;;;;;;;15.50;12.75;;;;;12.13;100.00;100811.69;5017537;28;45486;-75
2023/02/24 11:17:43;;;;;;;;;18.50;16.25;;;;;12.44;100.00;100799.44;5019396;28;45494;-75
2023/02/24 11:20:22;;;;;;;;;19.33;13.00;;;;;12.53;100.00;100788.88;5033234;28;45662;-73
2023/02/24 11:22:51;;;;;;;;;10.33;10.00;;;;;12.67;100.00;100790.66;5034745;28;46438;-74
2023/02/24 11:25:26;;;;;;;;;19.33;12.00;;;;;12.79;100.00;100788.03;5022523;28;46187;-74
2023/02/24 11:27:54;;;;;;;;;16.67;13.00;;;;;12.93;100.00;100790.69;5000191;28;45368;-75
2023/02/24 11:30:25;;;;;;;;;13.67;12.67;;;;;13.01;100.00;100781.00;5001010;28;45609;-74
2023/02/24 11:32:57;;;;;;;;;18.67;13.00;;;;;13.08;100.00;100777.44;5035424;28;45592;-76
2023/02/24 11:35:39;;;;;;;;;19.33;14.00;;;;;13.15;100.00;100767.72;5033233;28;45369;-75
2023/02/24 11:38:17;;;;;;;;;16.00;11.33;;;;;13.19;100.00;100757.09;5037878;28;45561;-76
2023/02/24 11:40:47;;;;;;;;;13.00;12.67;;;;;13.23;100.00;100750.09;5034980;28;47131;-75
2023/02/24 11:43:23;;;;;;;;;11.33;10.00;;;;;13.35;100.00;100744.75;5023450;28;45975;-74
2023/02/24 11:46:19;;;;;;;;;13.00;11.00;;;;;13.49;100.00;100739.44;5016909;28;45336;-74
2023/02/24 11:48:55;;;;;;;;;16.33;11.00;;;;;13.70;100.00;100728.75;5035211;28;45709;-74